sensor_id;sensor_type;location;lat;lon;timestamp;P1;durP1;ratioP1;P2;durP2;ratioP2
21243;SDS011;10780;50.942;4.028;2022-10-16T00:00:31;2.47;;;1.30;;
21243;SDS011;10780;50.942;4.028;2022-10-16T00:02:58;2.15;;;1.08;;
21243;SDS011;10780;50.942;4.028;2022-10-16T00:05:24;1.85;;;1.23;;
21243;SDS011;10780;50.942;4.028;2022-10-16T00:07:50;2.65;;;1.40;;
21243;SDS011;10780;50.942;4.028;2022-10-16T00:10:15;3.28;;;1.25;;
21243;SDS011;10780;50.942;4.028;2022-10-16T00:12:41;2.17;;;1.20;;
21243;SDS011;10780;50.942;4.028;2022-10-16T00:15:07;1.45;;;1.30;;
21243;SDS011;10780;50.942;4.028;2022-10-16T00:17:33;2.28;;;1.27;;
21243;SDS011;10780;50.942;4.028;2022-10-16T00:19:58;2.88;;;1.20;;
21243;SDS011;10780;50.942;4.028;2022-10-16T00:22:24;1.55;;;1.20;;
21243;SDS011;10780;50.942;4.028;2022-10-16T00:24:49;1.58;;;1.23;;
21243;SDS011;10780;50.942;4.028;2022-10-16T00:27:15;1.60;;;1.40;;
21243;SDS011;10780;50.942;4.028;2022-10-16T00:29:41;2.15;;;1.15;;
21243;SDS011;10780;50.942;4.028;2022-10-16T00:32:07;2.53;;;1.23;;
21243;SDS011;10780;50.942;4.028;2022-10-16T00:34:33;2.25;;;1.40;;
21243;SDS011;10780;50.942;4.028;2022-10-16T00:36:58;3.72;;;1.60;;
21243;SDS011;10780;50.942;4.028;2022-10-16T00:39:24;2.53;;;1.20;;
21243;SDS011;10780;50.942;4.028;2022-10-16T00:41:50;2.47;;;1.42;;
21243;SDS011;10780;50.942;4.028;2022-10-16T00:47:17;2.30;;;1.25;;
21243;SDS011;10780;50.942;4.028;2022-10-16T00:49:47;2.05;;;1.30;;
21243;SDS011;10780;50.942;4.028;2022-10-16T00:52:16;2.88;;;1.45;;
21243;SDS011;10780;50.942;4.028;2022-10-16T00:54:42;4.13;;;1.92;;
21243;SDS011;10780;50.942;4.028;2022-10-16T00:57:09;2.33;;;1.20;;
21243;SDS011;10780;50.942;4.028;2022-10-16T00:59:35;2.58;;;1.33;;
21243;SDS011;10780;50.942;4.028;2022-10-16T01:02:04;2.95;;;1.45;;
21243;SDS011;10780;50.942;4.028;2022-10-16T01:04:34;2.65;;;1.13;;
21243;SDS011;10780;50.942;4.028;2022-10-16T01:12:45;1.88;;;1.30;;
21243;SDS011;10780;50.942;4.028;2022-10-16T01:15:44;3.90;;;1.60;;
21243;SDS011;10780;50.942;4.028;2022-10-16T01:21:06;2.33;;;1.63;;
21243;SDS011;10780;50.942;4.028;2022-10-16T01:23:49;1.83;;;1.52;;
21243;SDS011;10780;50.942;4.028;2022-10-16T01:26:40;2.33;;;1.80;;
21243;SDS011;10780;50.942;4.028;2022-10-16T01:29:16;2.35;;;1.42;;
21243;SDS011;10780;50.942;4.028;2022-10-16T01:31:50;2.20;;;1.60;;
21243;SDS011;10780;50.942;4.028;2022-10-16T01:34:22;2.35;;;1.77;;
21243;SDS011;10780;50.942;4.028;2022-10-16T01:36:58;2.22;;;1.80;;
21243;SDS011;10780;50.942;4.028;2022-10-16T01:39:38;1.92;;;1.63;;
21243;SDS011;10780;50.942;4.028;2022-10-16T01:42:14;2.80;;;1.90;;
21243;SDS011;10780;50.942;4.028;2022-10-16T01:44:49;3.33;;;1.80;;
21243;SDS011;10780;50.942;4.028;2022-10-16T01:47:17;3.40;;;1.75;;
21243;SDS011;10780;50.942;4.028;2022-10-16T01:49:47;3.45;;;2.08;;
21243;SDS011;10780;50.942;4.028;2022-10-16T01:52:15;1.92;;;1.55;;
21243;SDS011;10780;50.942;4.028;2022-10-16T01:54:45;1.73;;;1.50;;
21243;SDS011;10780;50.942;4.028;2022-10-16T01:57:13;3.42;;;1.80;;
21243;SDS011;10780;50.942;4.028;2022-10-16T01:59:44;3.45;;;2.08;;
21243;SDS011;10780;50.942;4.028;2022-10-16T02:02:13;3.53;;;1.83;;
21243;SDS011;10780;50.942;4.028;2022-10-16T02:07:12;1.73;;;1.63;;
21243;SDS011;10780;50.942;4.028;2022-10-16T02:09:39;1.95;;;1.63;;
21243;SDS011;10780;50.942;4.028;2022-10-16T02:12:13;4.65;;;2.15;;
21243;SDS011;10780;50.942;4.028;2022-10-16T02:14:51;2.58;;;1.92;;
21243;SDS011;10780;50.942;4.028;2022-10-16T02:17:18;4.60;;;3.15;;
21243;SDS011;10780;50.942;4.028;2022-10-16T02:19:45;2.33;;;2.13;;
21243;SDS011;10780;50.942;4.028;2022-10-16T02:22:15;3.55;;;2.53;;
21243;SDS011;10780;50.942;4.028;2022-10-16T02:24:54;2.80;;;2.13;;
21243;SDS011;10780;50.942;4.028;2022-10-16T02:32:43;4.35;;;2.13;;
21243;SDS011;10780;50.942;4.028;2022-10-16T02:35:11;3.63;;;2.45;;
21243;SDS011;10780;50.942;4.028;2022-10-16T02:37:38;2.67;;;2.35;;
21243;SDS011;10780;50.942;4.028;2022-10-16T02:40:05;3.85;;;2.35;;
21243;SDS011;10780;50.942;4.028;2022-10-16T02:42:36;2.85;;;2.40;;
21243;SDS011;10780;50.942;4.028;2022-10-16T02:45:03;3.00;;;2.50;;
21243;SDS011;10780;50.942;4.028;2022-10-16T02:47:30;2.42;;;2.10;;
21243;SDS011;10780;50.942;4.028;2022-10-16T02:49:55;2.33;;;2.10;;
21243;SDS011;10780;50.942;4.028;2022-10-16T02:52:21;3.33;;;2.40;;
21243;SDS011;10780;50.942;4.028;2022-10-16T02:54:47;3.20;;;2.05;;
21243;SDS011;10780;50.942;4.028;2022-10-16T02:57:12;4.32;;;2.63;;
21243;SDS011;10780;50.942;4.028;2022-10-16T02:59:38;3.70;;;2.40;;
21243;SDS011;10780;50.942;4.028;2022-10-16T03:02:03;6.05;;;3.38;;
21243;SDS011;10780;50.942;4.028;2022-10-16T03:04:29;4.32;;;2.55;;
21243;SDS011;10780;50.942;4.028;2022-10-16T03:06:55;3.72;;;2.30;;
21243;SDS011;10780;50.942;4.028;2022-10-16T03:09:20;3.58;;;2.70;;
21243;SDS011;10780;50.942;4.028;2022-10-16T03:11:46;5.03;;;3.25;;
21243;SDS011;10780;50.942;4.028;2022-10-16T03:14:12;4.70;;;2.78;;
21243;SDS011;10780;50.942;4.028;2022-10-16T03:16:37;6.32;;;2.67;;
21243;SDS011;10780;50.942;4.028;2022-10-16T03:19:03;3.80;;;2.67;;
21243;SDS011;10780;50.942;4.028;2022-10-16T03:21:28;3.75;;;2.92;;
21243;SDS011;10780;50.942;4.028;2022-10-16T03:23:54;6.50;;;2.53;;
21243;SDS011;10780;50.942;4.028;2022-10-16T03:26:20;6.13;;;2.78;;
21243;SDS011;10780;50.942;4.028;2022-10-16T03:28:45;4.32;;;2.40;;
21243;SDS011;10780;50.942;4.028;2022-10-16T03:31:11;4.93;;;2.50;;
21243;SDS011;10780;50.942;4.028;2022-10-16T03:33:36;2.83;;;2.40;;
21243;SDS011;10780;50.942;4.028;2022-10-16T03:36:02;4.10;;;2.33;;
21243;SDS011;10780;50.942;4.028;2022-10-16T03:38:28;7.35;;;3.03;;
21243;SDS011;10780;50.942;4.028;2022-10-16T03:40:53;4.35;;;2.60;;
21243;SDS011;10780;50.942;4.028;2022-10-16T03:43:19;2.72;;;2.05;;
21243;SDS011;10780;50.942;4.028;2022-10-16T03:45:49;3.53;;;2.47;;
21243;SDS011;10780;50.942;4.028;2022-10-16T03:48:19;4.30;;;2.42;;
21243;SDS011;10780;50.942;4.028;2022-10-16T03:50:45;7.22;;;3.53;;
21243;SDS011;10780;50.942;4.028;2022-10-16T03:53:12;5.57;;;3.20;;
21243;SDS011;10780;50.942;4.028;2022-10-16T03:55:40;6.68;;;2.63;;
21243;SDS011;10780;50.942;4.028;2022-10-16T03:58:06;2.88;;;2.38;;
21243;SDS011;10780;50.942;4.028;2022-10-16T04:00:32;3.72;;;2.90;;
21243;SDS011;10780;50.942;4.028;2022-10-16T04:02:57;4.03;;;2.58;;
21243;SDS011;10780;50.942;4.028;2022-10-16T04:05:23;3.75;;;2.75;;
21243;SDS011;10780;50.942;4.028;2022-10-16T04:07:49;4.45;;;2.70;;
21243;SDS011;10780;50.942;4.028;2022-10-16T04:10:14;6.28;;;2.90;;
21243;SDS011;10780;50.942;4.028;2022-10-16T04:12:40;4.35;;;2.80;;
21243;SDS011;10780;50.942;4.028;2022-10-16T04:15:06;3.38;;;3.00;;
21243;SDS011;10780;50.942;4.028;2022-10-16T04:17:31;4.28;;;2.80;;
21243;SDS011;10780;50.942;4.028;2022-10-16T04:19:57;3.42;;;3.13;;
21243;SDS011;10780;50.942;4.028;2022-10-16T04:22:23;5.90;;;2.97;;
21243;SDS011;10780;50.942;4.028;2022-10-16T04:24:48;4.50;;;2.72;;
21243;SDS011;10780;50.942;4.028;2022-10-16T04:27:14;4.35;;;2.90;;
21243;SDS011;10780;50.942;4.028;2022-10-16T04:29:39;3.97;;;2.83;;
21243;SDS011;10780;50.942;4.028;2022-10-16T04:32:07;4.30;;;2.90;;
21243;SDS011;10780;50.942;4.028;2022-10-16T04:34:36;3.15;;;2.70;;
21243;SDS011;10780;50.942;4.028;2022-10-16T04:37:04;5.25;;;2.55;;
21243;SDS011;10780;50.942;4.028;2022-10-16T04:39:29;5.25;;;3.10;;
21243;SDS011;10780;50.942;4.028;2022-10-16T04:41:55;4.95;;;3.42;;
21243;SDS011;10780;50.942;4.028;2022-10-16T04:44:21;4.57;;;3.10;;
21243;SDS011;10780;50.942;4.028;2022-10-16T04:46:46;6.60;;;3.22;;
21243;SDS011;10780;50.942;4.028;2022-10-16T04:49:12;5.70;;;3.38;;
21243;SDS011;10780;50.942;4.028;2022-10-16T04:51:37;3.25;;;2.80;;
21243;SDS011;10780;50.942;4.028;2022-10-16T04:54:03;5.68;;;2.50;;
21243;SDS011;10780;50.942;4.028;2022-10-16T04:56:28;3.80;;;3.05;;
21243;SDS011;10780;50.942;4.028;2022-10-16T04:58:54;5.40;;;2.72;;
21243;SDS011;10780;50.942;4.028;2022-10-16T05:01:20;3.83;;;2.75;;
21243;SDS011;10780;50.942;4.028;2022-10-16T05:03:45;3.95;;;3.35;;
21243;SDS011;10780;50.942;4.028;2022-10-16T05:06:11;4.43;;;2.88;;
21243;SDS011;10780;50.942;4.028;2022-10-16T05:08:36;3.53;;;2.65;;
21243;SDS011;10780;50.942;4.028;2022-10-16T05:11:02;5.75;;;2.88;;
21243;SDS011;10780;50.942;4.028;2022-10-16T05:13:28;5.25;;;2.95;;
21243;SDS011;10780;50.942;4.028;2022-10-16T05:15:53;7.00;;;3.17;;
21243;SDS011;10780;50.942;4.028;2022-10-16T05:18:19;3.75;;;2.63;;
21243;SDS011;10780;50.942;4.028;2022-10-16T05:20:45;4.32;;;2.85;;
21243;SDS011;10780;50.942;4.028;2022-10-16T05:23:10;6.25;;;3.42;;
21243;SDS011;10780;50.942;4.028;2022-10-16T05:25:36;3.40;;;2.72;;
21243;SDS011;10780;50.942;4.028;2022-10-16T05:28:02;4.88;;;2.72;;
21243;SDS011;10780;50.942;4.028;2022-10-16T05:30:28;3.53;;;2.60;;
21243;SDS011;10780;50.942;4.028;2022-10-16T05:32:53;5.15;;;3.08;;
21243;SDS011;10780;50.942;4.028;2022-10-16T05:35:19;4.97;;;2.50;;
21243;SDS011;10780;50.942;4.028;2022-10-16T05:37:46;6.00;;;2.67;;
21243;SDS011;10780;50.942;4.028;2022-10-16T05:40:11;3.10;;;2.70;;
21243;SDS011;10780;50.942;4.028;2022-10-16T05:42:38;7.38;;;2.90;;
21243;SDS011;10780;50.942;4.028;2022-10-16T05:45:04;5.82;;;3.13;;
21243;SDS011;10780;50.942;4.028;2022-10-16T05:47:31;3.85;;;3.10;;
21243;SDS011;10780;50.942;4.028;2022-10-16T05:49:57;3.00;;;2.70;;
21243;SDS011;10780;50.942;4.028;2022-10-16T05:52:22;4.70;;;3.00;;
21243;SDS011;10780;50.942;4.028;2022-10-16T05:54:48;6.07;;;3.10;;
21243;SDS011;10780;50.942;4.028;2022-10-16T05:57:14;3.97;;;3.10;;
21243;SDS011;10780;50.942;4.028;2022-10-16T05:59:40;5.20;;;2.80;;
21243;SDS011;10780;50.942;4.028;2022-10-16T06:02:07;4.22;;;2.90;;
21243;SDS011;10780;50.942;4.028;2022-10-16T06:04:37;8.05;;;3.15;;
21243;SDS011;10780;50.942;4.028;2022-10-16T06:07:03;5.57;;;2.90;;
21243;SDS011;10780;50.942;4.028;2022-10-16T06:09:28;3.85;;;2.92;;
21243;SDS011;10780;50.942;4.028;2022-10-16T06:11:54;5.60;;;3.15;;
21243;SDS011;10780;50.942;4.028;2022-10-16T06:14:19;6.03;;;2.75;;
21243;SDS011;10780;50.942;4.028;2022-10-16T06:16:45;4.40;;;2.83;;
21243;SDS011;10780;50.942;4.028;2022-10-16T06:19:11;5.65;;;3.35;;
21243;SDS011;10780;50.942;4.028;2022-10-16T06:21:36;4.18;;;3.10;;
21243;SDS011;10780;50.942;4.028;2022-10-16T06:24:02;10.43;;;5.65;;
21243;SDS011;10780;50.942;4.028;2022-10-16T06:26:29;4.72;;;3.10;;
21243;SDS011;10780;50.942;4.028;2022-10-16T06:28:56;4.80;;;2.90;;
21243;SDS011;10780;50.942;4.028;2022-10-16T06:31:23;4.32;;;2.75;;
21243;SDS011;10780;50.942;4.028;2022-10-16T06:33:52;6.07;;;2.83;;
21243;SDS011;10780;50.942;4.028;2022-10-16T06:36:18;5.22;;;3.17;;
21243;SDS011;10780;50.942;4.028;2022-10-16T06:38:44;5.35;;;2.95;;
21243;SDS011;10780;50.942;4.028;2022-10-16T06:41:14;3.80;;;2.88;;
21243;SDS011;10780;50.942;4.028;2022-10-16T06:43:42;6.88;;;3.40;;
21243;SDS011;10780;50.942;4.028;2022-10-16T06:46:10;4.53;;;3.20;;
21243;SDS011;10780;50.942;4.028;2022-10-16T06:48:37;5.53;;;3.25;;
21243;SDS011;10780;50.942;4.028;2022-10-16T06:51:08;3.58;;;3.10;;
21243;SDS011;10780;50.942;4.028;2022-10-16T06:53:37;4.93;;;2.60;;
21243;SDS011;10780;50.942;4.028;2022-10-16T06:56:08;3.22;;;2.60;;
21243;SDS011;10780;50.942;4.028;2022-10-16T06:58:35;6.50;;;3.10;;
21243;SDS011;10780;50.942;4.028;2022-10-16T07:01:01;5.20;;;2.92;;
21243;SDS011;10780;50.942;4.028;2022-10-16T07:03:27;3.50;;;2.80;;
21243;SDS011;10780;50.942;4.028;2022-10-16T07:05:52;5.53;;;2.80;;
21243;SDS011;10780;50.942;4.028;2022-10-16T07:08:18;3.90;;;2.88;;
21243;SDS011;10780;50.942;4.028;2022-10-16T07:10:44;3.28;;;2.97;;
21243;SDS011;10780;50.942;4.028;2022-10-16T07:13:09;5.30;;;3.10;;
21243;SDS011;10780;50.942;4.028;2022-10-16T07:15:38;4.53;;;2.90;;
21243;SDS011;10780;50.942;4.028;2022-10-16T07:18:03;7.30;;;2.95;;
21243;SDS011;10780;50.942;4.028;2022-10-16T07:20:29;5.35;;;3.10;;
21243;SDS011;10780;50.942;4.028;2022-10-16T07:22:54;4.93;;;2.70;;
21243;SDS011;10780;50.942;4.028;2022-10-16T07:25:20;5.85;;;2.88;;
21243;SDS011;10780;50.942;4.028;2022-10-16T07:27:45;4.13;;;2.80;;
21243;SDS011;10780;50.942;4.028;2022-10-16T07:30:11;3.75;;;3.10;;
21243;SDS011;10780;50.942;4.028;2022-10-16T07:32:37;3.88;;;2.97;;
21243;SDS011;10780;50.942;4.028;2022-10-16T07:35:02;5.43;;;2.67;;
21243;SDS011;10780;50.942;4.028;2022-10-16T07:37:28;6.07;;;2.80;;
21243;SDS011;10780;50.942;4.028;2022-10-16T07:39:54;4.32;;;2.67;;
21243;SDS011;10780;50.942;4.028;2022-10-16T07:42:20;8.23;;;2.92;;
21243;SDS011;10780;50.942;4.028;2022-10-16T07:44:45;7.53;;;2.88;;
21243;SDS011;10780;50.942;4.028;2022-10-16T07:47:11;5.10;;;2.72;;
21243;SDS011;10780;50.942;4.028;2022-10-16T07:49:37;3.72;;;2.70;;
21243;SDS011;10780;50.942;4.028;2022-10-16T07:52:02;4.53;;;2.47;;
21243;SDS011;10780;50.942;4.028;2022-10-16T07:54:28;5.05;;;2.63;;
21243;SDS011;10780;50.942;4.028;2022-10-16T07:56:54;3.75;;;2.80;;
21243;SDS011;10780;50.942;4.028;2022-10-16T07:59:20;4.70;;;2.75;;
21243;SDS011;10780;50.942;4.028;2022-10-16T08:01:45;5.85;;;2.83;;
21243;SDS011;10780;50.942;4.028;2022-10-16T08:04:11;6.10;;;2.72;;
21243;SDS011;10780;50.942;4.028;2022-10-16T08:06:37;6.05;;;2.83;;
21243;SDS011;10780;50.942;4.028;2022-10-16T08:09:04;4.43;;;2.65;;
21243;SDS011;10780;50.942;4.028;2022-10-16T08:11:30;6.10;;;2.50;;
21243;SDS011;10780;50.942;4.028;2022-10-16T08:13:56;4.57;;;2.40;;
21243;SDS011;10780;50.942;4.028;2022-10-16T08:16:21;7.65;;;2.50;;
21243;SDS011;10780;50.942;4.028;2022-10-16T08:18:47;3.75;;;2.40;;
21243;SDS011;10780;50.942;4.028;2022-10-16T08:21:14;5.35;;;2.72;;
21243;SDS011;10780;50.942;4.028;2022-10-16T08:23:41;4.03;;;2.50;;
21243;SDS011;10780;50.942;4.028;2022-10-16T08:26:09;5.35;;;2.53;;
21243;SDS011;10780;50.942;4.028;2022-10-16T08:28:35;3.83;;;2.40;;
21243;SDS011;10780;50.942;4.028;2022-10-16T08:31:11;16.00;;;4.78;;
21243;SDS011;10780;50.942;4.028;2022-10-16T08:33:39;4.05;;;2.13;;
21243;SDS011;10780;50.942;4.028;2022-10-16T08:36:06;4.85;;;2.38;;
21243;SDS011;10780;50.942;4.028;2022-10-16T08:38:32;3.80;;;2.35;;
21243;SDS011;10780;50.942;4.028;2022-10-16T08:49:36;4.40;;;2.65;;
21243;SDS011;10780;50.942;4.028;2022-10-16T08:52:08;4.32;;;2.60;;
21243;SDS011;10780;50.942;4.028;2022-10-16T08:54:37;11.98;;;5.35;;
21243;SDS011;10780;50.942;4.028;2022-10-16T08:57:16;5.63;;;2.63;;
21243;SDS011;10780;50.942;4.028;2022-10-16T08:59:47;4.80;;;2.47;;
21243;SDS011;10780;50.942;4.028;2022-10-16T09:02:32;7.63;;;2.47;;
21243;SDS011;10780;50.942;4.028;2022-10-16T09:07:49;3.58;;;2.20;;
21243;SDS011;10780;50.942;4.028;2022-10-16T09:16:22;5.88;;;2.80;;
21243;SDS011;10780;50.942;4.028;2022-10-16T09:21:38;5.13;;;2.15;;
21243;SDS011;10780;50.942;4.028;2022-10-16T09:24:12;4.47;;;2.30;;
21243;SDS011;10780;50.942;4.028;2022-10-16T09:26:43;2.88;;;1.77;;
21243;SDS011;10780;50.942;4.028;2022-10-16T09:29:13;4.78;;;2.40;;
21243;SDS011;10780;50.942;4.028;2022-10-16T09:31:40;6.40;;;2.30;;
21243;SDS011;10780;50.942;4.028;2022-10-16T09:34:06;4.22;;;1.83;;
21243;SDS011;10780;50.942;4.028;2022-10-16T09:36:45;6.70;;;2.25;;
21243;SDS011;10780;50.942;4.028;2022-10-16T09:39:12;6.47;;;2.45;;
21243;SDS011;10780;50.942;4.028;2022-10-16T09:41:38;2.92;;;1.85;;
21243;SDS011;10780;50.942;4.028;2022-10-16T09:47:11;8.60;;;2.15;;
21243;SDS011;10780;50.942;4.028;2022-10-16T09:52:23;7.55;;;2.30;;
21243;SDS011;10780;50.942;4.028;2022-10-16T09:54:53;4.63;;;2.30;;
21243;SDS011;10780;50.942;4.028;2022-10-16T09:57:22;6.07;;;2.17;;
21243;SDS011;10780;50.942;4.028;2022-10-16T09:59:49;7.90;;;2.78;;
21243;SDS011;10780;50.942;4.028;2022-10-16T10:02:17;6.72;;;2.00;;
21243;SDS011;10780;50.942;4.028;2022-10-16T10:04:52;3.67;;;2.13;;
21243;SDS011;10780;50.942;4.028;2022-10-16T10:07:21;5.38;;;2.08;;
21243;SDS011;10780;50.942;4.028;2022-10-16T10:09:53;4.25;;;1.60;;
21243;SDS011;10780;50.942;4.028;2022-10-16T10:12:23;6.57;;;2.40;;
21243;SDS011;10780;50.942;4.028;2022-10-16T10:14:51;7.72;;;2.22;;
21243;SDS011;10780;50.942;4.028;2022-10-16T10:17:19;6.82;;;2.50;;
21243;SDS011;10780;50.942;4.028;2022-10-16T10:19:50;4.43;;;2.45;;
21243;SDS011;10780;50.942;4.028;2022-10-16T10:24:56;5.65;;;2.20;;
21243;SDS011;10780;50.942;4.028;2022-10-16T10:46:50;3.47;;;2.15;;
21243;SDS011;10780;50.942;4.028;2022-10-16T11:06:20;5.88;;;2.10;;
21243;SDS011;10780;50.942;4.028;2022-10-16T11:09:23;5.15;;;2.00;;
21243;SDS011;10780;50.942;4.028;2022-10-16T11:11:48;4.63;;;2.28;;
21243;SDS011;10780;50.942;4.028;2022-10-16T11:14:20;3.40;;;1.75;;
21243;SDS011;10780;50.942;4.028;2022-10-16T11:16:52;5.03;;;2.10;;
21243;SDS011;10780;50.942;4.028;2022-10-16T11:19:48;4.32;;;1.83;;
21243;SDS011;10780;50.942;4.028;2022-10-16T11:23:02;3.65;;;1.65;;
21243;SDS011;10780;50.942;4.028;2022-10-16T11:25:35;6.75;;;2.08;;
21243;SDS011;10780;50.942;4.028;2022-10-16T11:28:14;6.40;;;2.22;;
21243;SDS011;10780;50.942;4.028;2022-10-16T11:31:08;5.88;;;1.70;;
21243;SDS011;10780;50.942;4.028;2022-10-16T11:33:55;8.25;;;2.17;;
21243;SDS011;10780;50.942;4.028;2022-10-16T11:36:42;8.48;;;2.92;;
21243;SDS011;10780;50.942;4.028;2022-10-16T11:39:21;3.90;;;1.50;;
21243;SDS011;10780;50.942;4.028;2022-10-16T11:41:59;6.15;;;2.50;;
21243;SDS011;10780;50.942;4.028;2022-10-16T11:47:31;5.82;;;1.88;;
21243;SDS011;10780;50.942;4.028;2022-10-16T11:50:15;4.25;;;1.73;;
21243;SDS011;10780;50.942;4.028;2022-10-16T11:55:36;3.42;;;1.83;;
21243;SDS011;10780;50.942;4.028;2022-10-16T11:58:05;4.57;;;1.40;;
21243;SDS011;10780;50.942;4.028;2022-10-16T12:00:44;4.18;;;1.50;;
21243;SDS011;10780;50.942;4.028;2022-10-16T12:03:28;4.05;;;1.30;;
21243;SDS011;10780;50.942;4.028;2022-10-16T12:06:11;4.78;;;1.10;;
21243;SDS011;10780;50.942;4.028;2022-10-16T12:08:52;3.10;;;1.30;;
21243;SDS011;10780;50.942;4.028;2022-10-16T12:13:49;5.00;;;1.60;;
21243;SDS011;10780;50.942;4.028;2022-10-16T12:18:41;6.03;;;1.45;;
21243;SDS011;10780;50.942;4.028;2022-10-16T12:21:08;5.45;;;1.60;;
21243;SDS011;10780;50.942;4.028;2022-10-16T12:23:46;2.50;;;1.33;;
21243;SDS011;10780;50.942;4.028;2022-10-16T12:26:29;2.83;;;1.30;;
21243;SDS011;10780;50.942;4.028;2022-10-16T12:29:12;3.88;;;1.30;;
21243;SDS011;10780;50.942;4.028;2022-10-16T12:31:59;2.50;;;1.27;;
21243;SDS011;10780;50.942;4.028;2022-10-16T12:37:20;1.90;;;1.25;;
21243;SDS011;10780;50.942;4.028;2022-10-16T12:39:48;3.70;;;1.35;;
21243;SDS011;10780;50.942;4.028;2022-10-16T12:42:20;2.92;;;1.27;;
21243;SDS011;10780;50.942;4.028;2022-10-16T12:44:48;3.67;;;1.17;;
21243;SDS011;10780;50.942;4.028;2022-10-16T12:47:24;3.63;;;1.23;;
21243;SDS011;10780;50.942;4.028;2022-10-16T12:50:03;2.38;;;1.02;;
21243;SDS011;10780;50.942;4.028;2022-10-16T12:52:47;2.60;;;1.30;;
21243;SDS011;10780;50.942;4.028;2022-10-16T12:55:17;3.28;;;1.27;;
21243;SDS011;10780;50.942;4.028;2022-10-16T12:58:09;2.67;;;1.20;;
21243;SDS011;10780;50.942;4.028;2022-10-16T13:17:01;3.28;;;1.30;;
21243;SDS011;10780;50.942;4.028;2022-10-16T13:19:42;3.63;;;1.42;;
21243;SDS011;10780;50.942;4.028;2022-10-16T13:30:15;3.35;;;1.20;;
21243;SDS011;10780;50.942;4.028;2022-10-16T13:32:49;1.35;;;1.13;;
21243;SDS011;10780;50.942;4.028;2022-10-16T13:35:23;2.08;;;1.05;;
21243;SDS011;10780;50.942;4.028;2022-10-16T13:37:50;1.95;;;1.20;;
21243;SDS011;10780;50.942;4.028;2022-10-16T13:40:23;2.67;;;1.23;;
21243;SDS011;10780;50.942;4.028;2022-10-16T13:42:50;2.70;;;0.95;;
21243;SDS011;10780;50.942;4.028;2022-10-16T13:45:22;1.33;;;1.00;;
21243;SDS011;10780;50.942;4.028;2022-10-16T13:47:49;1.77;;;1.00;;
21243;SDS011;10780;50.942;4.028;2022-10-16T13:50:15;1.70;;;1.30;;
21243;SDS011;10780;50.942;4.028;2022-10-16T13:52:42;2.55;;;1.17;;
21243;SDS011;10780;50.942;4.028;2022-10-16T13:55:12;1.30;;;1.20;;
21243;SDS011;10780;50.942;4.028;2022-10-16T13:57:39;1.48;;;1.10;;
21243;SDS011;10780;50.942;4.028;2022-10-16T14:00:28;2.38;;;1.50;;
21243;SDS011;10780;50.942;4.028;2022-10-16T14:03:05;2.45;;;1.30;;
21243;SDS011;10780;50.942;4.028;2022-10-16T14:05:42;3.67;;;1.40;;
21243;SDS011;10780;50.942;4.028;2022-10-16T14:08:13;3.05;;;1.52;;
21243;SDS011;10780;50.942;4.028;2022-10-16T14:10:38;2.70;;;1.20;;
21243;SDS011;10780;50.942;4.028;2022-10-16T14:13:05;3.00;;;1.00;;
21243;SDS011;10780;50.942;4.028;2022-10-16T14:15:32;2.33;;;1.30;;
21243;SDS011;10780;50.942;4.028;2022-10-16T14:18:00;1.08;;;0.88;;
21243;SDS011;10780;50.942;4.028;2022-10-16T14:20:27;1.73;;;1.20;;
21243;SDS011;10780;50.942;4.028;2022-10-16T14:23:03;2.80;;;1.15;;
21243;SDS011;10780;50.942;4.028;2022-10-16T14:25:43;2.53;;;1.10;;
21243;SDS011;10780;50.942;4.028;2022-10-16T14:33:39;3.78;;;1.23;;
21243;SDS011;10780;50.942;4.028;2022-10-16T14:38:40;2.00;;;1.08;;
21243;SDS011;10780;50.942;4.028;2022-10-16T14:41:08;2.60;;;1.20;;
21243;SDS011;10780;50.942;4.028;2022-10-16T14:43:38;3.90;;;1.38;;
21243;SDS011;10780;50.942;4.028;2022-10-16T14:46:12;2.17;;;1.15;;
21243;SDS011;10780;50.942;4.028;2022-10-16T14:49:22;3.42;;;1.20;;
21243;SDS011;10780;50.942;4.028;2022-10-16T14:51:34;1.73;;;1.10;;
21243;SDS011;10780;50.942;4.028;2022-10-16T14:54:00;4.90;;;1.50;;
21243;SDS011;10780;50.942;4.028;2022-10-16T14:56:29;4.28;;;1.50;;
21243;SDS011;10780;50.942;4.028;2022-10-16T14:58:58;2.80;;;1.40;;
21243;SDS011;10780;50.942;4.028;2022-10-16T15:01:24;2.15;;;1.38;;
21243;SDS011;10780;50.942;4.028;2022-10-16T15:03:50;4.68;;;2.08;;
21243;SDS011;10780;50.942;4.028;2022-10-16T15:06:17;3.33;;;1.40;;
21243;SDS011;10780;50.942;4.028;2022-10-16T15:08:43;7.22;;;1.85;;
21243;SDS011;10780;50.942;4.028;2022-10-16T15:11:12;2.85;;;1.58;;
21243;SDS011;10780;50.942;4.028;2022-10-16T15:13:40;3.53;;;1.45;;
21243;SDS011;10780;50.942;4.028;2022-10-16T15:16:14;2.25;;;1.40;;
21243;SDS011;10780;50.942;4.028;2022-10-16T15:18:41;2.65;;;1.70;;
21243;SDS011;10780;50.942;4.028;2022-10-16T15:21:07;2.05;;;1.30;;
21243;SDS011;10780;50.942;4.028;2022-10-16T15:23:33;3.65;;;1.95;;
21243;SDS011;10780;50.942;4.028;2022-10-16T15:25:59;2.60;;;1.50;;
21243;SDS011;10780;50.942;4.028;2022-10-16T15:28:25;3.22;;;1.70;;
21243;SDS011;10780;50.942;4.028;2022-10-16T15:30:51;4.75;;;1.90;;
21243;SDS011;10780;50.942;4.028;2022-10-16T15:33:20;5.22;;;1.95;;
21243;SDS011;10780;50.942;4.028;2022-10-16T15:35:51;3.83;;;2.10;;
21243;SDS011;10780;50.942;4.028;2022-10-16T15:38:18;4.45;;;2.33;;
21243;SDS011;10780;50.942;4.028;2022-10-16T15:40:46;5.03;;;2.17;;
21243;SDS011;10780;50.942;4.028;2022-10-16T15:43:12;2.95;;;1.98;;
21243;SDS011;10780;50.942;4.028;2022-10-16T15:45:38;4.43;;;2.40;;
21243;SDS011;10780;50.942;4.028;2022-10-16T15:48:04;5.22;;;2.40;;
21243;SDS011;10780;50.942;4.028;2022-10-16T15:50:30;3.80;;;1.88;;
21243;SDS011;10780;50.942;4.028;2022-10-16T15:52:57;3.67;;;2.20;;
21243;SDS011;10780;50.942;4.028;2022-10-16T15:55:22;3.97;;;2.25;;
21243;SDS011;10780;50.942;4.028;2022-10-16T15:57:48;2.08;;;1.88;;
21243;SDS011;10780;50.942;4.028;2022-10-16T16:00:16;4.68;;;2.50;;
21243;SDS011;10780;50.942;4.028;2022-10-16T16:02:49;5.35;;;2.38;;
21243;SDS011;10780;50.942;4.028;2022-10-16T16:05:17;3.58;;;2.00;;
21243;SDS011;10780;50.942;4.028;2022-10-16T16:07:43;2.95;;;1.80;;
21243;SDS011;10780;50.942;4.028;2022-10-16T16:10:09;4.72;;;1.92;;
21243;SDS011;10780;50.942;4.028;2022-10-16T16:12:36;4.30;;;2.22;;
21243;SDS011;10780;50.942;4.028;2022-10-16T16:15:03;7.18;;;3.20;;
21243;SDS011;10780;50.942;4.028;2022-10-16T16:17:30;4.43;;;2.45;;
21243;SDS011;10780;50.942;4.028;2022-10-16T16:19:57;6.38;;;2.97;;
21243;SDS011;10780;50.942;4.028;2022-10-16T16:22:23;5.85;;;2.47;;
21243;SDS011;10780;50.942;4.028;2022-10-16T16:24:48;3.88;;;2.17;;
21243;SDS011;10780;50.942;4.028;2022-10-16T16:27:14;5.35;;;2.47;;
21243;SDS011;10780;50.942;4.028;2022-10-16T16:29:40;4.78;;;2.80;;
21243;SDS011;10780;50.942;4.028;2022-10-16T16:32:05;5.95;;;2.65;;
21243;SDS011;10780;50.942;4.028;2022-10-16T16:34:31;7.00;;;2.65;;
21243;SDS011;10780;50.942;4.028;2022-10-16T16:36:57;5.93;;;2.85;;
21243;SDS011;10780;50.942;4.028;2022-10-16T16:39:23;3.65;;;2.28;;
21243;SDS011;10780;50.942;4.028;2022-10-16T16:41:48;4.18;;;2.25;;
21243;SDS011;10780;50.942;4.028;2022-10-16T16:44:15;4.35;;;2.95;;
21243;SDS011;10780;50.942;4.028;2022-10-16T16:46:41;4.13;;;2.40;;
21243;SDS011;10780;50.942;4.028;2022-10-16T16:49:09;5.38;;;2.50;;
21243;SDS011;10780;50.942;4.028;2022-10-16T16:51:36;5.95;;;2.55;;
21243;SDS011;10780;50.942;4.028;2022-10-16T16:54:02;6.13;;;2.67;;
21243;SDS011;10780;50.942;4.028;2022-10-16T16:56:27;7.05;;;2.60;;
21243;SDS011;10780;50.942;4.028;2022-10-16T16:58:54;5.07;;;2.78;;
21243;SDS011;10780;50.942;4.028;2022-10-16T17:01:22;2.67;;;2.47;;
21243;SDS011;10780;50.942;4.028;2022-10-16T17:03:49;6.70;;;3.58;;
21243;SDS011;10780;50.942;4.028;2022-10-16T17:06:17;4.55;;;3.30;;
21243;SDS011;10780;50.942;4.028;2022-10-16T17:08:43;3.97;;;3.28;;